Terminal Aerodrome Forecast
Issued by NWS

Home | Current Version | Previous Version | Text Only | Print | Product List | Glossary On
Versions: 1 2 3 4 5 6 7 8 9 10 11 12 13 14 15 16 17 18
000
FTUS46 KLOX 080001 RRA
TAFPRB
TAF
KPRB 080001Z 0800/0824 21014G22KT P6SM SKC
     FM080500 30010KT P6SM SKC
     FM081100 30006KT 6SM BR BKN008
     FM081630 33005KT P6SM SCT010
     FM082000 21015G25KT P6SM SKC=

USA.gov is the U.S. government's official web portal to all federal, state and local government web resources and services.